sensor_id;sensor_type;location;lat;lon;timestamp;P1;durP1;ratioP1;P2;durP2;ratioP2
1839;SDS011;920;48.944;9.148;2023-05-21T00:00:36;15.63;;;14.17;;
1839;SDS011;920;48.944;9.148;2023-05-21T00:03:03;15.93;;;14.40;;
1839;SDS011;920;48.944;9.148;2023-05-21T00:05:30;15.00;;;13.40;;
1839;SDS011;920;48.944;9.148;2023-05-21T00:07:56;16.03;;;14.50;;
1839;SDS011;920;48.944;9.148;2023-05-21T00:10:24;16.60;;;14.90;;
1839;SDS011;920;48.944;9.148;2023-05-21T00:12:51;16.77;;;15.10;;
1839;SDS011;920;48.944;9.148;2023-05-21T00:15:18;15.47;;;13.97;;
1839;SDS011;920;48.944;9.148;2023-05-21T00:17:45;16.60;;;14.90;;
1839;SDS011;920;48.944;9.148;2023-05-21T00:20:12;14.87;;;13.50;;
1839;SDS011;920;48.944;9.148;2023-05-21T00:22:40;16.03;;;14.37;;
1839;SDS011;920;48.944;9.148;2023-05-21T00:25:08;17.37;;;15.67;;
1839;SDS011;920;48.944;9.148;2023-05-21T00:27:37;16.33;;;14.87;;
1839;SDS011;920;48.944;9.148;2023-05-21T00:30:04;16.83;;;15.33;;
1839;SDS011;920;48.944;9.148;2023-05-21T00:32:32;17.00;;;15.13;;
1839;SDS011;920;48.944;9.148;2023-05-21T00:34:58;16.07;;;14.53;;
1839;SDS011;920;48.944;9.148;2023-05-21T00:37:25;16.50;;;14.83;;
1839;SDS011;920;48.944;9.148;2023-05-21T00:39:53;15.93;;;14.43;;
1839;SDS011;920;48.944;9.148;2023-05-21T00:42:20;16.70;;;15.00;;
1839;SDS011;920;48.944;9.148;2023-05-21T00:44:52;17.23;;;15.63;;
1839;SDS011;920;48.944;9.148;2023-05-21T00:47:19;16.80;;;15.30;;
1839;SDS011;920;48.944;9.148;2023-05-21T00:49:46;16.50;;;14.90;;
1839;SDS011;920;48.944;9.148;2023-05-21T00:52:15;16.50;;;14.90;;
1839;SDS011;920;48.944;9.148;2023-05-21T00:54:45;17.60;;;15.67;;
1839;SDS011;920;48.944;9.148;2023-05-21T00:57:11;18.60;;;16.80;;
1839;SDS011;920;48.944;9.148;2023-05-21T00:59:38;16.83;;;14.97;;
1839;SDS011;920;48.944;9.148;2023-05-21T01:02:06;16.50;;;14.90;;
1839;SDS011;920;48.944;9.148;2023-05-21T01:04:33;16.70;;;15.10;;
1839;SDS011;920;48.944;9.148;2023-05-21T01:07:01;17.57;;;15.87;;
1839;SDS011;920;48.944;9.148;2023-05-21T01:09:27;16.90;;;15.30;;
1839;SDS011;920;48.944;9.148;2023-05-21T01:11:54;17.47;;;15.70;;
1839;SDS011;920;48.944;9.148;2023-05-21T01:14:21;17.30;;;15.63;;
1839;SDS011;920;48.944;9.148;2023-05-21T01:16:51;17.20;;;15.53;;
1839;SDS011;920;48.944;9.148;2023-05-21T01:19:20;15.43;;;14.03;;
1839;SDS011;920;48.944;9.148;2023-05-21T01:21:48;16.77;;;15.17;;
1839;SDS011;920;48.944;9.148;2023-05-21T01:24:18;17.80;;;16.00;;
1839;SDS011;920;48.944;9.148;2023-05-21T01:26:45;17.20;;;15.60;;
1839;SDS011;920;48.944;9.148;2023-05-21T01:29:11;17.50;;;15.80;;
1839;SDS011;920;48.944;9.148;2023-05-21T01:31:41;17.40;;;15.80;;
1839;SDS011;920;48.944;9.148;2023-05-21T01:34:14;17.17;;;15.57;;
1839;SDS011;920;48.944;9.148;2023-05-21T01:36:42;16.17;;;14.57;;
1839;SDS011;920;48.944;9.148;2023-05-21T01:39:21;16.80;;;15.10;;
1839;SDS011;920;48.944;9.148;2023-05-21T01:41:49;17.17;;;15.53;;
1839;SDS011;920;48.944;9.148;2023-05-21T01:44:18;16.53;;;14.93;;
1839;SDS011;920;48.944;9.148;2023-05-21T01:46:46;17.97;;;16.17;;
1839;SDS011;920;48.944;9.148;2023-05-21T01:49:13;16.10;;;14.60;;
1839;SDS011;920;48.944;9.148;2023-05-21T01:51:41;16.43;;;14.83;;
1839;SDS011;920;48.944;9.148;2023-05-21T01:54:08;17.30;;;15.63;;
1839;SDS011;920;48.944;9.148;2023-05-21T01:56:36;18.50;;;16.63;;
1839;SDS011;920;48.944;9.148;2023-05-21T01:59:03;17.40;;;15.70;;
1839;SDS011;920;48.944;9.148;2023-05-21T02:01:31;17.90;;;16.20;;
1839;SDS011;920;48.944;9.148;2023-05-21T02:03:57;16.87;;;15.17;;
1839;SDS011;920;48.944;9.148;2023-05-21T02:06:24;17.90;;;16.20;;
1839;SDS011;920;48.944;9.148;2023-05-21T02:08:52;17.80;;;15.07;;
1839;SDS011;920;48.944;9.148;2023-05-21T02:11:19;17.60;;;15.90;;
1839;SDS011;920;48.944;9.148;2023-05-21T02:13:48;17.00;;;15.30;;
1839;SDS011;920;48.944;9.148;2023-05-21T02:16:14;16.60;;;15.00;;
1839;SDS011;920;48.944;9.148;2023-05-21T02:18:41;15.97;;;14.37;;
1839;SDS011;920;48.944;9.148;2023-05-21T02:21:08;18.70;;;16.23;;
1839;SDS011;920;48.944;9.148;2023-05-21T02:23:36;17.87;;;16.17;;
1839;SDS011;920;48.944;9.148;2023-05-21T02:26:02;17.17;;;15.47;;
1839;SDS011;920;48.944;9.148;2023-05-21T02:28:29;18.33;;;16.43;;
1839;SDS011;920;48.944;9.148;2023-05-21T02:30:58;17.97;;;16.17;;
1839;SDS011;920;48.944;9.148;2023-05-21T02:33:25;17.77;;;16.07;;
1839;SDS011;920;48.944;9.148;2023-05-21T02:35:52;17.40;;;15.70;;
1839;SDS011;920;48.944;9.148;2023-05-21T02:38:19;16.33;;;14.73;;
1839;SDS011;920;48.944;9.148;2023-05-21T02:40:47;18.43;;;16.53;;
1839;SDS011;920;48.944;9.148;2023-05-21T02:43:15;17.60;;;15.80;;
1839;SDS011;920;48.944;9.148;2023-05-21T02:45:42;17.00;;;15.20;;
1839;SDS011;920;48.944;9.148;2023-05-21T02:48:10;18.17;;;16.37;;
1839;SDS011;920;48.944;9.148;2023-05-21T02:50:39;16.67;;;15.10;;
1839;SDS011;920;48.944;9.148;2023-05-21T02:53:06;17.60;;;16.00;;
1839;SDS011;920;48.944;9.148;2023-05-21T02:55:34;18.93;;;16.53;;
1839;SDS011;920;48.944;9.148;2023-05-21T02:58:00;18.63;;;16.63;;
1839;SDS011;920;48.944;9.148;2023-05-21T03:00:27;19.60;;;16.93;;
1839;SDS011;920;48.944;9.148;2023-05-21T03:02:54;17.60;;;15.80;;
1839;SDS011;920;48.944;9.148;2023-05-21T03:05:22;17.10;;;15.30;;
1839;SDS011;920;48.944;9.148;2023-05-21T03:07:49;18.53;;;16.70;;
1839;SDS011;920;48.944;9.148;2023-05-21T03:10:17;17.53;;;15.80;;
1839;SDS011;920;48.944;9.148;2023-05-21T03:12:44;17.67;;;15.80;;
1839;SDS011;920;48.944;9.148;2023-05-21T03:15:11;17.00;;;15.40;;
1839;SDS011;920;48.944;9.148;2023-05-21T03:17:38;17.73;;;16.00;;
1839;SDS011;920;48.944;9.148;2023-05-21T03:20:06;17.47;;;15.50;;
1839;SDS011;920;48.944;9.148;2023-05-21T03:22:41;16.93;;;15.23;;
1839;SDS011;920;48.944;9.148;2023-05-21T03:25:08;17.47;;;15.63;;
1839;SDS011;920;48.944;9.148;2023-05-21T03:27:35;18.00;;;16.20;;
1839;SDS011;920;48.944;9.148;2023-05-21T03:30:04;16.87;;;15.07;;
1839;SDS011;920;48.944;9.148;2023-05-21T03:32:36;17.60;;;15.80;;
1839;SDS011;920;48.944;9.148;2023-05-21T03:35:04;20.00;;;17.00;;
1839;SDS011;920;48.944;9.148;2023-05-21T03:37:31;17.47;;;15.77;;
1839;SDS011;920;48.944;9.148;2023-05-21T03:40:00;16.90;;;15.30;;
1839;SDS011;920;48.944;9.148;2023-05-21T03:42:28;17.67;;;15.90;;
1839;SDS011;920;48.944;9.148;2023-05-21T03:44:55;19.60;;;16.90;;
1839;SDS011;920;48.944;9.148;2023-05-21T03:47:42;17.07;;;15.30;;
1839;SDS011;920;48.944;9.148;2023-05-21T03:50:09;17.60;;;15.77;;
1839;SDS011;920;48.944;9.148;2023-05-21T03:52:37;16.37;;;14.70;;
1839;SDS011;920;48.944;9.148;2023-05-21T03:55:06;18.00;;;16.10;;
1839;SDS011;920;48.944;9.148;2023-05-21T03:57:33;17.57;;;14.43;;
1839;SDS011;920;48.944;9.148;2023-05-21T04:00:00;14.80;;;13.03;;
1839;SDS011;920;48.944;9.148;2023-05-21T04:02:28;17.70;;;15.60;;
1839;SDS011;920;48.944;9.148;2023-05-21T04:04:55;16.60;;;14.90;;
1839;SDS011;920;48.944;9.148;2023-05-21T04:07:23;19.37;;;15.83;;
1839;SDS011;920;48.944;9.148;2023-05-21T04:09:51;15.27;;;13.77;;
1839;SDS011;920;48.944;9.148;2023-05-21T04:12:19;17.90;;;15.97;;
1839;SDS011;920;48.944;9.148;2023-05-21T04:14:46;15.50;;;14.00;;
1839;SDS011;920;48.944;9.148;2023-05-21T04:17:13;17.17;;;15.37;;
1839;SDS011;920;48.944;9.148;2023-05-21T04:19:40;18.00;;;16.20;;
1839;SDS011;920;48.944;9.148;2023-05-21T04:22:09;17.17;;;15.43;;
1839;SDS011;920;48.944;9.148;2023-05-21T04:24:36;15.60;;;14.10;;
1839;SDS011;920;48.944;9.148;2023-05-21T04:27:12;18.17;;;16.37;;
1839;SDS011;920;48.944;9.148;2023-05-21T04:29:42;16.40;;;14.80;;
1839;SDS011;920;48.944;9.148;2023-05-21T04:32:09;17.00;;;15.20;;
1839;SDS011;920;48.944;9.148;2023-05-21T04:34:39;17.77;;;15.93;;
1839;SDS011;920;48.944;9.148;2023-05-21T04:37:06;17.77;;;15.97;;
1839;SDS011;920;48.944;9.148;2023-05-21T04:39:33;16.90;;;15.10;;
1839;SDS011;920;48.944;9.148;2023-05-21T04:42:00;16.37;;;14.77;;
1839;SDS011;920;48.944;9.148;2023-05-21T04:44:27;17.20;;;14.40;;
1839;SDS011;920;48.944;9.148;2023-05-21T04:46:57;17.13;;;15.40;;
1839;SDS011;920;48.944;9.148;2023-05-21T04:49:24;17.27;;;15.57;;
1839;SDS011;920;48.944;9.148;2023-05-21T04:51:51;17.63;;;15.83;;
1839;SDS011;920;48.944;9.148;2023-05-21T04:54:18;17.50;;;15.70;;
1839;SDS011;920;48.944;9.148;2023-05-21T04:56:45;16.73;;;13.77;;
1839;SDS011;920;48.944;9.148;2023-05-21T04:59:12;17.70;;;15.90;;
1839;SDS011;920;48.944;9.148;2023-05-21T05:01:39;18.87;;;16.33;;
1839;SDS011;920;48.944;9.148;2023-05-21T05:04:09;16.47;;;14.60;;
1839;SDS011;920;48.944;9.148;2023-05-21T05:06:36;17.13;;;15.37;;
1839;SDS011;920;48.944;9.148;2023-05-21T05:09:04;16.77;;;15.07;;
1839;SDS011;920;48.944;9.148;2023-05-21T05:11:30;17.60;;;15.80;;
1839;SDS011;920;48.944;9.148;2023-05-21T05:13:57;16.70;;;15.10;;
1839;SDS011;920;48.944;9.148;2023-05-21T05:16:24;16.37;;;14.70;;
1839;SDS011;920;48.944;9.148;2023-05-21T05:18:50;17.60;;;15.80;;
1839;SDS011;920;48.944;9.148;2023-05-21T05:21:20;16.63;;;14.93;;
1839;SDS011;920;48.944;9.148;2023-05-21T05:23:47;17.30;;;15.60;;
1839;SDS011;920;48.944;9.148;2023-05-21T05:26:14;17.37;;;15.63;;
1839;SDS011;920;48.944;9.148;2023-05-21T05:28:41;17.40;;;15.80;;
1839;SDS011;920;48.944;9.148;2023-05-21T05:31:08;16.80;;;15.20;;
1839;SDS011;920;48.944;9.148;2023-05-21T05:33:35;16.10;;;14.50;;
1839;SDS011;920;48.944;9.148;2023-05-21T05:36:02;16.73;;;15.00;;
1839;SDS011;920;48.944;9.148;2023-05-21T05:38:30;16.57;;;14.97;;
1839;SDS011;920;48.944;9.148;2023-05-21T05:40:57;17.37;;;15.67;;
1839;SDS011;920;48.944;9.148;2023-05-21T05:43:24;16.83;;;15.10;;
1839;SDS011;920;48.944;9.148;2023-05-21T05:45:51;17.37;;;15.67;;
1839;SDS011;920;48.944;9.148;2023-05-21T05:48:18;16.57;;;14.93;;
1839;SDS011;920;48.944;9.148;2023-05-21T05:50:46;17.90;;;15.70;;
1839;SDS011;920;48.944;9.148;2023-05-21T05:53:13;16.97;;;15.37;;
1839;SDS011;920;48.944;9.148;2023-05-21T05:55:42;17.53;;;15.73;;
1839;SDS011;920;48.944;9.148;2023-05-21T05:58:08;17.33;;;15.63;;
1839;SDS011;920;48.944;9.148;2023-05-21T06:00:47;19.67;;;17.00;;
1839;SDS011;920;48.944;9.148;2023-05-21T06:03:15;17.17;;;15.57;;
1839;SDS011;920;48.944;9.148;2023-05-21T06:05:42;17.27;;;15.57;;
1839;SDS011;920;48.944;9.148;2023-05-21T06:08:09;18.20;;;15.93;;
1839;SDS011;920;48.944;9.148;2023-05-21T06:10:35;18.70;;;16.80;;
1839;SDS011;920;48.944;9.148;2023-05-21T06:13:03;18.17;;;16.37;;
1839;SDS011;920;48.944;9.148;2023-05-21T06:15:30;19.10;;;16.60;;
1839;SDS011;920;48.944;9.148;2023-05-21T06:17:57;16.97;;;15.17;;
1839;SDS011;920;48.944;9.148;2023-05-21T06:20:24;15.70;;;14.30;;
1839;SDS011;920;48.944;9.148;2023-05-21T06:22:51;17.47;;;15.80;;
1839;SDS011;920;48.944;9.148;2023-05-21T06:25:18;17.83;;;16.03;;
1839;SDS011;920;48.944;9.148;2023-05-21T06:27:45;18.00;;;16.20;;
1839;SDS011;920;48.944;9.148;2023-05-21T06:30:19;17.90;;;16.20;;
1839;SDS011;920;48.944;9.148;2023-05-21T06:32:46;16.07;;;14.47;;
1839;SDS011;920;48.944;9.148;2023-05-21T06:35:13;17.17;;;15.57;;
1839;SDS011;920;48.944;9.148;2023-05-21T06:37:40;17.70;;;16.00;;
1839;SDS011;920;48.944;9.148;2023-05-21T06:40:08;17.43;;;15.83;;
1839;SDS011;920;48.944;9.148;2023-05-21T06:42:35;17.57;;;15.70;;
1839;SDS011;920;48.944;9.148;2023-05-21T06:45:18;16.60;;;15.00;;
1839;SDS011;920;48.944;9.148;2023-05-21T06:47:45;17.43;;;15.63;;
1839;SDS011;920;48.944;9.148;2023-05-21T06:50:12;17.57;;;15.97;;
1839;SDS011;920;48.944;9.148;2023-05-21T06:52:39;17.50;;;15.80;;
1839;SDS011;920;48.944;9.148;2023-05-21T06:55:06;16.97;;;15.37;;
1839;SDS011;920;48.944;9.148;2023-05-21T06:57:54;18.07;;;16.37;;
1839;SDS011;920;48.944;9.148;2023-05-21T07:00:24;17.30;;;15.60;;
1839;SDS011;920;48.944;9.148;2023-05-21T07:02:50;17.20;;;15.60;;
1839;SDS011;920;48.944;9.148;2023-05-21T07:05:17;16.83;;;15.03;;
1839;SDS011;920;48.944;9.148;2023-05-21T07:07:44;16.50;;;15.00;;
1839;SDS011;920;48.944;9.148;2023-05-21T07:10:11;17.23;;;15.50;;
1839;SDS011;920;48.944;9.148;2023-05-21T07:12:38;16.53;;;15.03;;
1839;SDS011;920;48.944;9.148;2023-05-21T07:15:06;16.10;;;14.60;;
1839;SDS011;920;48.944;9.148;2023-05-21T07:17:35;16.23;;;14.67;;
1839;SDS011;920;48.944;9.148;2023-05-21T07:20:03;15.37;;;13.87;;
1839;SDS011;920;48.944;9.148;2023-05-21T07:22:31;14.53;;;13.20;;
1839;SDS011;920;48.944;9.148;2023-05-21T07:24:58;14.73;;;13.33;;
1839;SDS011;920;48.944;9.148;2023-05-21T07:27:25;15.00;;;13.60;;
1839;SDS011;920;48.944;9.148;2023-05-21T07:29:54;15.10;;;13.70;;
1839;SDS011;920;48.944;9.148;2023-05-21T07:32:21;15.47;;;14.07;;
1839;SDS011;920;48.944;9.148;2023-05-21T07:34:49;14.37;;;13.07;;
1839;SDS011;920;48.944;9.148;2023-05-21T07:37:16;13.80;;;12.50;;
1839;SDS011;920;48.944;9.148;2023-05-21T07:39:43;13.20;;;12.00;;
1839;SDS011;920;48.944;9.148;2023-05-21T07:42:10;12.43;;;11.33;;
1839;SDS011;920;48.944;9.148;2023-05-21T07:44:37;12.77;;;11.57;;
1839;SDS011;920;48.944;9.148;2023-05-21T07:47:05;12.13;;;10.93;;
1839;SDS011;920;48.944;9.148;2023-05-21T07:49:32;12.20;;;11.10;;
1839;SDS011;920;48.944;9.148;2023-05-21T07:52:00;11.73;;;10.63;;
1839;SDS011;920;48.944;9.148;2023-05-21T07:54:27;11.30;;;10.33;;
1839;SDS011;920;48.944;9.148;2023-05-21T07:56:54;12.57;;;11.27;;
1839;SDS011;920;48.944;9.148;2023-05-21T07:59:41;12.00;;;11.00;;
1839;SDS011;920;48.944;9.148;2023-05-21T08:02:07;11.00;;;10.07;;
1839;SDS011;920;48.944;9.148;2023-05-21T08:04:34;11.63;;;10.43;;
1839;SDS011;920;48.944;9.148;2023-05-21T08:07:03;11.87;;;10.80;;
1839;SDS011;920;48.944;9.148;2023-05-21T08:09:31;11.17;;;10.27;;
1839;SDS011;920;48.944;9.148;2023-05-21T08:11:58;11.53;;;10.53;;
1839;SDS011;920;48.944;9.148;2023-05-21T08:14:24;11.07;;;10.07;;
1839;SDS011;920;48.944;9.148;2023-05-21T08:16:52;11.23;;;10.23;;
1839;SDS011;920;48.944;9.148;2023-05-21T08:19:19;13.27;;;11.97;;
1839;SDS011;920;48.944;9.148;2023-05-21T08:21:46;11.63;;;10.57;;
1839;SDS011;920;48.944;9.148;2023-05-21T08:24:14;11.60;;;10.50;;
1839;SDS011;920;48.944;9.148;2023-05-21T08:26:41;11.93;;;10.80;;
1839;SDS011;920;48.944;9.148;2023-05-21T08:29:09;12.40;;;11.20;;
1839;SDS011;920;48.944;9.148;2023-05-21T08:31:36;10.43;;;9.53;;
1839;SDS011;920;48.944;9.148;2023-05-21T08:34:04;11.50;;;10.50;;
1839;SDS011;920;48.944;9.148;2023-05-21T08:36:39;11.13;;;10.13;;
1839;SDS011;920;48.944;9.148;2023-05-21T08:39:18;11.30;;;10.30;;
1839;SDS011;920;48.944;9.148;2023-05-21T08:41:45;10.27;;;9.27;;
1839;SDS011;920;48.944;9.148;2023-05-21T08:44:13;11.07;;;9.87;;
1839;SDS011;920;48.944;9.148;2023-05-21T08:46:40;10.60;;;9.60;;
1839;SDS011;920;48.944;9.148;2023-05-21T08:49:11;10.07;;;9.17;;
1839;SDS011;920;48.944;9.148;2023-05-21T08:51:38;10.23;;;9.20;;
1839;SDS011;920;48.944;9.148;2023-05-21T08:54:05;9.97;;;9.07;;
1839;SDS011;920;48.944;9.148;2023-05-21T08:56:34;10.60;;;9.60;;
1839;SDS011;920;48.944;9.148;2023-05-21T08:59:01;9.50;;;8.60;;
1839;SDS011;920;48.944;9.148;2023-05-21T09:01:33;9.27;;;8.47;;
1839;SDS011;920;48.944;9.148;2023-05-21T09:04:14;10.97;;;9.90;;
1839;SDS011;920;48.944;9.148;2023-05-21T09:06:42;8.87;;;8.17;;
1839;SDS011;920;48.944;9.148;2023-05-21T09:09:10;9.57;;;8.73;;
1839;SDS011;920;48.944;9.148;2023-05-21T09:11:46;10.40;;;9.50;;
1839;SDS011;920;48.944;9.148;2023-05-21T09:14:13;8.77;;;7.87;;
1839;SDS011;920;48.944;9.148;2023-05-21T09:16:57;10.00;;;9.10;;
1839;SDS011;920;48.944;9.148;2023-05-21T09:19:23;8.70;;;7.90;;
1839;SDS011;920;48.944;9.148;2023-05-21T09:21:50;9.40;;;8.60;;
1839;SDS011;920;48.944;9.148;2023-05-21T09:24:20;9.30;;;8.50;;
1839;SDS011;920;48.944;9.148;2023-05-21T09:26:49;9.57;;;8.67;;
1839;SDS011;920;48.944;9.148;2023-05-21T09:29:17;8.90;;;8.00;;
1839;SDS011;920;48.944;9.148;2023-05-21T09:31:44;10.17;;;9.27;;
1839;SDS011;920;48.944;9.148;2023-05-21T09:34:11;8.80;;;8.00;;
1839;SDS011;920;48.944;9.148;2023-05-21T09:36:40;10.50;;;9.13;;
1839;SDS011;920;48.944;9.148;2023-05-21T09:39:07;10.23;;;9.33;;
1839;SDS011;920;48.944;9.148;2023-05-21T09:41:36;10.20;;;9.30;;
1839;SDS011;920;48.944;9.148;2023-05-21T09:44:04;16.70;;;14.90;;
1839;SDS011;920;48.944;9.148;2023-05-21T09:46:36;26.40;;;23.13;;
1839;SDS011;920;48.944;9.148;2023-05-21T09:49:05;11.50;;;10.40;;
1839;SDS011;920;48.944;9.148;2023-05-21T09:51:32;10.20;;;9.30;;
1839;SDS011;920;48.944;9.148;2023-05-21T09:53:58;9.20;;;8.40;;
1839;SDS011;920;48.944;9.148;2023-05-21T09:56:26;38.10;;;34.50;;
1839;SDS011;920;48.944;9.148;2023-05-21T09:58:55;13.10;;;12.00;;
1839;SDS011;920;48.944;9.148;2023-05-21T10:01:26;10.40;;;9.50;;
1839;SDS011;920;48.944;9.148;2023-05-21T10:03:53;10.77;;;9.87;;
1839;SDS011;920;48.944;9.148;2023-05-21T10:06:21;9.07;;;8.27;;
1839;SDS011;920;48.944;9.148;2023-05-21T10:08:50;9.40;;;8.60;;
1839;SDS011;920;48.944;9.148;2023-05-21T10:11:20;8.73;;;7.93;;
1839;SDS011;920;48.944;9.148;2023-05-21T10:13:48;8.53;;;7.77;;
1839;SDS011;920;48.944;9.148;2023-05-21T10:16:19;8.00;;;7.30;;
1839;SDS011;920;48.944;9.148;2023-05-21T10:18:47;8.63;;;7.87;;
1839;SDS011;920;48.944;9.148;2023-05-21T10:21:14;7.73;;;7.10;;
1839;SDS011;920;48.944;9.148;2023-05-21T10:23:41;7.80;;;7.10;;
1839;SDS011;920;48.944;9.148;2023-05-21T10:26:08;8.80;;;7.90;;
1839;SDS011;920;48.944;9.148;2023-05-21T10:28:35;8.70;;;7.90;;
1839;SDS011;920;48.944;9.148;2023-05-21T10:31:02;8.67;;;7.87;;
1839;SDS011;920;48.944;9.148;2023-05-21T10:33:29;8.53;;;7.83;;
1839;SDS011;920;48.944;9.148;2023-05-21T10:35:59;9.03;;;8.33;;
1839;SDS011;920;48.944;9.148;2023-05-21T10:38:25;8.50;;;7.70;;
1839;SDS011;920;48.944;9.148;2023-05-21T10:40:53;8.13;;;7.43;;
1839;SDS011;920;48.944;9.148;2023-05-21T10:43:26;20.33;;;18.53;;
1839;SDS011;920;48.944;9.148;2023-05-21T10:49:36;9.30;;;8.50;;
1839;SDS011;920;48.944;9.148;2023-05-21T10:52:12;8.40;;;7.60;;
1839;SDS011;920;48.944;9.148;2023-05-21T10:54:53;8.67;;;7.87;;
1839;SDS011;920;48.944;9.148;2023-05-21T10:57:32;8.93;;;8.13;;
1839;SDS011;920;48.944;9.148;2023-05-21T11:00:09;8.23;;;7.53;;
1839;SDS011;920;48.944;9.148;2023-05-21T11:02:36;7.47;;;6.87;;
1839;SDS011;920;48.944;9.148;2023-05-21T11:05:04;8.57;;;7.87;;
1839;SDS011;920;48.944;9.148;2023-05-21T11:07:51;8.60;;;7.80;;
1839;SDS011;920;48.944;9.148;2023-05-21T11:10:29;9.17;;;8.27;;
1839;SDS011;920;48.944;9.148;2023-05-21T11:13:04;7.50;;;6.80;;
1839;SDS011;920;48.944;9.148;2023-05-21T11:18:56;8.13;;;7.43;;
1839;SDS011;920;48.944;9.148;2023-05-21T11:21:30;8.77;;;7.97;;
1839;SDS011;920;48.944;9.148;2023-05-21T11:24:01;8.33;;;7.63;;
1839;SDS011;920;48.944;9.148;2023-05-21T11:29:35;7.70;;;7.10;;
1839;SDS011;920;48.944;9.148;2023-05-21T11:32:12;8.13;;;7.43;;
1839;SDS011;920;48.944;9.148;2023-05-21T11:34:44;7.67;;;6.97;;
1839;SDS011;920;48.944;9.148;2023-05-21T11:37:21;7.77;;;6.70;;
1839;SDS011;920;48.944;9.148;2023-05-21T11:39:52;7.90;;;7.20;;
1839;SDS011;920;48.944;9.148;2023-05-21T11:42:26;7.30;;;6.70;;
1839;SDS011;920;48.944;9.148;2023-05-21T11:44:54;7.60;;;6.80;;
1839;SDS011;920;48.944;9.148;2023-05-21T11:47:23;6.90;;;6.23;;
1839;SDS011;920;48.944;9.148;2023-05-21T11:49:51;7.27;;;6.60;;
1839;SDS011;920;48.944;9.148;2023-05-21T11:52:17;7.40;;;6.80;;
1839;SDS011;920;48.944;9.148;2023-05-21T11:54:45;7.33;;;6.73;;
1839;SDS011;920;48.944;9.148;2023-05-21T11:57:16;7.13;;;6.43;;
1839;SDS011;920;48.944;9.148;2023-05-21T11:59:44;7.97;;;7.27;;
1839;SDS011;920;48.944;9.148;2023-05-21T12:02:13;7.63;;;7.03;;
1839;SDS011;920;48.944;9.148;2023-05-21T12:04:40;7.33;;;6.73;;
1839;SDS011;920;48.944;9.148;2023-05-21T12:07:07;8.10;;;7.40;;
1839;SDS011;920;48.944;9.148;2023-05-21T12:09:37;7.70;;;7.00;;
1839;SDS011;920;48.944;9.148;2023-05-21T12:12:05;7.50;;;6.80;;
1839;SDS011;920;48.944;9.148;2023-05-21T12:14:33;7.50;;;6.90;;
1839;SDS011;920;48.944;9.148;2023-05-21T12:17:01;13.43;;;8.47;;
1839;SDS011;920;48.944;9.148;2023-05-21T12:19:30;14.63;;;13.17;;
1839;SDS011;920;48.944;9.148;2023-05-21T12:21:59;9.70;;;8.83;;
1839;SDS011;920;48.944;9.148;2023-05-21T12:24:27;8.30;;;7.60;;
1839;SDS011;920;48.944;9.148;2023-05-21T12:26:53;7.80;;;7.10;;
1839;SDS011;920;48.944;9.148;2023-05-21T12:29:23;7.43;;;6.80;;
1839;SDS011;920;48.944;9.148;2023-05-21T12:31:52;7.20;;;6.60;;
1839;SDS011;920;48.944;9.148;2023-05-21T12:34:37;7.27;;;6.67;;
1839;SDS011;920;48.944;9.148;2023-05-21T12:37:05;7.10;;;6.50;;
1839;SDS011;920;48.944;9.148;2023-05-21T12:39:36;7.50;;;6.80;;
1839;SDS011;920;48.944;9.148;2023-05-21T12:42:03;7.10;;;6.40;;
1839;SDS011;920;48.944;9.148;2023-05-21T12:44:30;7.80;;;7.10;;
1839;SDS011;920;48.944;9.148;2023-05-21T12:46:58;7.70;;;7.00;;
1839;SDS011;920;48.944;9.148;2023-05-21T12:49:35;7.83;;;7.03;;
1839;SDS011;920;48.944;9.148;2023-05-21T12:52:03;7.37;;;6.67;;
1839;SDS011;920;48.944;9.148;2023-05-21T12:54:31;7.40;;;6.70;;
1839;SDS011;920;48.944;9.148;2023-05-21T12:57:04;7.90;;;7.20;;
1839;SDS011;920;48.944;9.148;2023-05-21T12:59:42;7.40;;;6.80;;
1839;SDS011;920;48.944;9.148;2023-05-21T13:02:14;7.90;;;7.20;;
1839;SDS011;920;48.944;9.148;2023-05-21T13:04:47;7.10;;;6.50;;
1839;SDS011;920;48.944;9.148;2023-05-21T13:07:17;7.10;;;6.50;;
1839;SDS011;920;48.944;9.148;2023-05-21T13:09:43;7.87;;;7.17;;
1839;SDS011;920;48.944;9.148;2023-05-21T13:12:10;7.67;;;7.00;;
1839;SDS011;920;48.944;9.148;2023-05-21T13:14:37;7.87;;;7.27;;
1839;SDS011;920;48.944;9.148;2023-05-21T13:17:04;7.43;;;6.83;;
1839;SDS011;920;48.944;9.148;2023-05-21T13:19:33;6.90;;;6.30;;
1839;SDS011;920;48.944;9.148;2023-05-21T13:21:59;7.30;;;6.60;;
1839;SDS011;920;48.944;9.148;2023-05-21T13:24:26;7.33;;;6.70;;
1839;SDS011;920;48.944;9.148;2023-05-21T13:26:53;7.20;;;6.60;;
1839;SDS011;920;48.944;9.148;2023-05-21T13:29:20;7.40;;;6.80;;
1839;SDS011;920;48.944;9.148;2023-05-21T13:31:46;7.77;;;7.10;;
1839;SDS011;920;48.944;9.148;2023-05-21T13:34:13;7.13;;;6.50;;
1839;SDS011;920;48.944;9.148;2023-05-21T13:36:41;7.00;;;6.40;;
1839;SDS011;920;48.944;9.148;2023-05-21T13:39:08;7.07;;;6.47;;
1839;SDS011;920;48.944;9.148;2023-05-21T13:41:35;6.87;;;6.27;;
1839;SDS011;920;48.944;9.148;2023-05-21T13:44:02;7.57;;;6.87;;
1839;SDS011;920;48.944;9.148;2023-05-21T13:46:29;6.90;;;6.20;;
1839;SDS011;920;48.944;9.148;2023-05-21T13:48:55;6.80;;;5.70;;
1839;SDS011;920;48.944;9.148;2023-05-21T13:51:22;6.13;;;5.63;;
1839;SDS011;920;48.944;9.148;2023-05-21T13:53:50;6.97;;;6.27;;
1839;SDS011;920;48.944;9.148;2023-05-21T13:56:17;7.37;;;5.33;;
1839;SDS011;920;48.944;9.148;2023-05-21T13:58:44;6.40;;;5.90;;
1839;SDS011;920;48.944;9.148;2023-05-21T14:01:11;6.50;;;5.90;;
1839;SDS011;920;48.944;9.148;2023-05-21T14:03:38;7.80;;;5.83;;
1839;SDS011;920;48.944;9.148;2023-05-21T14:06:05;6.70;;;6.10;;
1839;SDS011;920;48.944;9.148;2023-05-21T14:08:32;7.07;;;5.83;;
1839;SDS011;920;48.944;9.148;2023-05-21T14:11:00;6.80;;;6.20;;
1839;SDS011;920;48.944;9.148;2023-05-21T14:13:27;6.27;;;5.77;;
1839;SDS011;920;48.944;9.148;2023-05-21T14:15:54;6.40;;;5.80;;
1839;SDS011;920;48.944;9.148;2023-05-21T14:18:21;6.20;;;5.70;;
1839;SDS011;920;48.944;9.148;2023-05-21T14:20:47;7.03;;;6.43;;
1839;SDS011;920;48.944;9.148;2023-05-21T14:23:14;6.23;;;5.67;;
1839;SDS011;920;48.944;9.148;2023-05-21T14:25:41;5.97;;;5.37;;
1839;SDS011;920;48.944;9.148;2023-05-21T14:28:09;6.80;;;6.20;;
1839;SDS011;920;48.944;9.148;2023-05-21T14:30:36;6.37;;;5.80;;
1839;SDS011;920;48.944;9.148;2023-05-21T14:33:02;6.60;;;6.00;;
1839;SDS011;920;48.944;9.148;2023-05-21T14:35:29;6.90;;;6.20;;
1839;SDS011;920;48.944;9.148;2023-05-21T14:37:56;6.00;;;5.37;;
1839;SDS011;920;48.944;9.148;2023-05-21T14:40:22;6.20;;;5.67;;
1839;SDS011;920;48.944;9.148;2023-05-21T14:42:49;6.73;;;6.13;;
1839;SDS011;920;48.944;9.148;2023-05-21T14:45:18;7.00;;;6.30;;
1839;SDS011;920;48.944;9.148;2023-05-21T14:47:45;7.50;;;5.80;;
1839;SDS011;920;48.944;9.148;2023-05-21T14:50:13;6.20;;;5.63;;
1839;SDS011;920;48.944;9.148;2023-05-21T14:52:41;5.70;;;5.10;;
1839;SDS011;920;48.944;9.148;2023-05-21T14:55:08;6.67;;;6.07;;
1839;SDS011;920;48.944;9.148;2023-05-21T14:57:36;6.10;;;5.60;;
1839;SDS011;920;48.944;9.148;2023-05-21T15:00:03;8.40;;;7.70;;
1839;SDS011;920;48.944;9.148;2023-05-21T15:02:32;7.30;;;6.60;;
1839;SDS011;920;48.944;9.148;2023-05-21T15:04:59;11.00;;;10.10;;
1839;SDS011;920;48.944;9.148;2023-05-21T15:07:26;9.07;;;8.17;;
1839;SDS011;920;48.944;9.148;2023-05-21T15:09:52;8.17;;;7.37;;
1839;SDS011;920;48.944;9.148;2023-05-21T15:12:19;7.00;;;6.40;;
1839;SDS011;920;48.944;9.148;2023-05-21T15:14:46;6.13;;;5.60;;
1839;SDS011;920;48.944;9.148;2023-05-21T15:17:13;12.83;;;11.67;;
1839;SDS011;920;48.944;9.148;2023-05-21T15:19:41;10.10;;;9.30;;
1839;SDS011;920;48.944;9.148;2023-05-21T15:22:07;8.00;;;7.00;;
1839;SDS011;920;48.944;9.148;2023-05-21T15:24:34;7.20;;;6.53;;
1839;SDS011;920;48.944;9.148;2023-05-21T15:27:01;6.23;;;5.70;;
1839;SDS011;920;48.944;9.148;2023-05-21T15:29:28;7.03;;;6.37;;